createdAt,value
2023-02-22T00:03:52.740Z,23.73
2023-02-22T00:08:55.763Z,17.43
2023-02-22T00:31:38.302Z,20.57
2023-02-22T00:36:46.738Z,20.67
2023-02-22T00:41:49.854Z,25.83
2023-02-22T00:46:53.002Z,23.07
2023-02-22T00:51:57.600Z,28.03
2023-02-22T00:57:00.062Z,20.93
2023-02-22T01:02:03.206Z,16.57
2023-02-22T01:07:06.175Z,20.50
2023-02-22T01:12:08.632Z,19.37
2023-02-22T01:17:11.018Z,25.73
2023-02-22T01:22:13.423Z,16.43
2023-02-22T01:27:16.639Z,26.20
2023-02-22T01:32:19.446Z,21.80
2023-02-22T01:37:21.799Z,30.80
2023-02-22T01:42:24.391Z,20.27
2023-02-22T01:47:26.733Z,24.23
2023-02-22T01:52:29.187Z,25.00
2023-02-22T01:57:35.938Z,21.57
2023-02-22T02:02:44.166Z,25.67
2023-02-22T02:07:46.646Z,40.17
2023-02-22T02:12:50.980Z,33.40
2023-02-22T02:17:57.068Z,22.70
2023-02-22T02:23:24.555Z,22.00
2023-02-22T02:28:45.953Z,19.47
2023-02-22T02:33:56.340Z,23.90
2023-02-22T02:39:08.148Z,23.07
2023-02-22T02:44:38.000Z,22.10
2023-02-22T02:49:51.338Z,15.97
2023-02-22T02:54:55.493Z,20.37
2023-02-22T02:59:57.892Z,19.57
2023-02-22T03:05:38.070Z,20.27
2023-02-22T03:11:05.406Z,21.87
2023-02-22T03:16:14.962Z,25.73
2023-02-22T03:21:37.033Z,16.23
2023-02-22T03:27:09.310Z,24.80
2023-02-22T03:32:17.189Z,15.90
2023-02-22T03:37:29.427Z,28.67
2023-02-22T03:42:36.257Z,24.13
2023-02-22T03:47:56.801Z,23.77
2023-02-22T03:53:01.642Z,24.53
2023-02-22T03:58:11.005Z,24.70
2023-02-22T04:03:14.299Z,37.60
2023-02-22T04:08:17.679Z,37.40
2023-02-22T04:13:20.448Z,31.30
2023-02-22T04:18:25.940Z,28.17
2023-02-22T04:23:28.867Z,25.97
2023-02-22T04:28:31.376Z,36.13
2023-02-22T04:34:00.577Z,40.40
2023-02-22T04:39:06.853Z,27.63
2023-02-22T04:44:09.459Z,31.30
2023-02-22T04:49:11.920Z,46.87
2023-02-22T04:54:17.907Z,61.27
2023-02-22T04:59:22.870Z,44.50
2023-02-22T05:04:31.500Z,47.03
2023-02-22T05:09:33.966Z,106.27
2023-02-22T05:14:36.372Z,79.40
2023-02-22T05:19:38.801Z,39.23
2023-02-22T05:24:41.213Z,37.83
2023-02-22T05:29:43.657Z,41.03
2023-02-22T05:34:46.032Z,38.07
2023-02-22T05:39:48.742Z,53.03
2023-02-22T05:44:51.121Z,56.90
2023-02-22T05:49:53.488Z,44.03
2023-02-22T05:54:55.854Z,41.93
2023-02-22T05:59:58.423Z,41.97
2023-02-22T06:05:00.875Z,63.90
2023-02-22T06:10:03.503Z,61.70
2023-02-22T06:15:06.370Z,68.27
2023-02-22T06:20:14.245Z,63.07
2023-02-22T06:25:19.476Z,67.60
2023-02-22T06:30:23.870Z,104.50
2023-02-22T06:35:26.389Z,125.47
2023-02-22T06:40:29.841Z,105.10
2023-02-22T06:45:32.272Z,100.67
2023-02-22T06:50:35.943Z,152.20
2023-02-22T06:55:38.641Z,158.30
2023-02-22T07:00:41.135Z,153.47
2023-02-22T07:05:43.717Z,141.27
2023-02-22T07:10:46.188Z,162.90
2023-02-22T07:15:48.633Z,121.63
2023-02-22T07:20:51.026Z,110.03
2023-02-22T07:25:53.429Z,103.47
2023-02-22T07:30:55.910Z,81.10
2023-02-22T07:35:58.369Z,99.63
2023-02-22T07:41:02.055Z,78.03
2023-02-22T07:46:04.717Z,80.93
2023-02-22T07:51:07.508Z,59.87
2023-02-22T07:56:10.354Z,46.27
2023-02-22T08:01:13.063Z,48.07
2023-02-22T08:06:15.441Z,48.23
2023-02-22T08:11:18.217Z,32.27
2023-02-22T08:16:20.823Z,31.17
2023-02-22T08:21:23.316Z,34.70
2023-02-22T08:26:25.924Z,48.47
2023-02-22T08:31:28.423Z,43.10
2023-02-22T08:36:32.999Z,35.23
2023-02-22T08:41:36.157Z,33.47
2023-02-22T08:46:39.127Z,48.63
2023-02-22T08:51:41.562Z,44.47
2023-02-22T08:56:44.264Z,45.90
2023-02-22T09:01:46.736Z,52.03
2023-02-22T09:06:52.023Z,41.13
2023-02-22T09:11:54.545Z,33.87
2023-02-22T09:16:57.003Z,33.33
2023-02-22T09:22:00.143Z,31.10
2023-02-22T09:27:04.470Z,39.43
2023-02-22T09:32:07.152Z,29.33
2023-02-22T09:37:09.755Z,34.83
2023-02-22T09:42:15.330Z,27.27
2023-02-22T09:47:32.498Z,25.33
2023-02-22T09:52:54.095Z,21.03
2023-02-22T09:57:58.308Z,24.27
2023-02-22T10:03:21.444Z,25.00
2023-02-22T10:08:31.195Z,22.60
2023-02-22T10:13:48.966Z,22.70
2023-02-22T10:19:22.581Z,22.90
2023-02-22T10:24:40.126Z,22.27
2023-02-22T10:29:51.245Z,28.90
2023-02-22T10:34:58.196Z,24.23
2023-02-22T10:40:22.991Z,27.93
2023-02-22T10:45:35.195Z,24.67
2023-02-22T10:50:42.340Z,27.03
2023-02-22T10:56:08.886Z,24.13
2023-02-22T11:01:42.112Z,24.17
2023-02-22T11:06:47.640Z,31.17
2023-02-22T11:12:07.655Z,28.20
2023-02-22T11:17:14.238Z,24.43
2023-02-22T11:22:29.411Z,27.87
2023-02-22T11:27:38.654Z,20.33
2023-02-22T11:32:59.356Z,30.07
2023-02-22T11:38:22.338Z,25.70
2023-02-22T11:43:24.758Z,18.93
2023-02-22T11:48:31.042Z,16.83
2023-02-22T11:54:01.546Z,19.87
2023-02-22T11:59:36.628Z,24.67
2023-02-22T12:05:18.462Z,24.40
2023-02-22T12:10:34.415Z,27.67
2023-02-22T12:15:47.211Z,24.73
2023-02-22T12:21:01.202Z,57.23
2023-02-22T12:26:11.883Z,24.40
2023-02-22T12:31:23.466Z,30.80
2023-02-22T12:36:33.900Z,25.97
2023-02-22T12:41:50.550Z,21.73
2023-02-22T12:46:57.207Z,20.43
2023-02-22T12:52:21.257Z,29.20
2023-02-22T12:57:51.734Z,17.77
2023-02-22T13:03:03.660Z,19.20
2023-02-22T13:08:32.596Z,19.70
2023-02-22T13:13:54.575Z,21.37
2023-02-22T13:19:15.043Z,24.13
2023-02-22T13:24:45.189Z,18.37
2023-02-22T13:29:52.110Z,26.37
2023-02-22T13:35:09.763Z,21.77
2023-02-22T13:40:24.843Z,18.97
2023-02-22T13:45:35.247Z,18.37
2023-02-22T13:50:56.464Z,18.83
2023-02-22T13:56:00.913Z,20.73
2023-02-22T14:01:03.562Z,18.93
2023-02-22T14:06:08.628Z,24.03
2023-02-22T14:11:13.964Z,30.83
2023-02-22T14:16:20.957Z,21.73
2023-02-22T14:21:23.632Z,33.70
2023-02-22T14:26:41.728Z,37.80
2023-02-22T14:31:44.161Z,35.87
2023-02-22T14:37:26.661Z,23.97
2023-02-22T14:42:34.374Z,24.27
2023-02-22T14:48:01.357Z,41.17
2023-02-22T14:53:27.451Z,50.10
2023-02-22T14:58:38.710Z,68.13
2023-02-22T15:03:41.359Z,74.20
2023-02-22T15:08:48.907Z,39.43
2023-02-22T15:13:54.100Z,17.60
2023-02-22T15:18:59.968Z,17.80
2023-02-22T15:24:06.652Z,15.30
2023-02-22T15:29:30.136Z,15.70
2023-02-22T15:34:33.535Z,21.13
2023-02-22T15:39:43.851Z,22.60
2023-02-22T15:44:48.778Z,23.47
2023-02-22T15:50:36.273Z,18.80
2023-02-22T15:55:41.703Z,13.53
2023-02-22T16:00:49.399Z,23.53
2023-02-22T16:06:00.679Z,19.57
2023-02-22T16:11:13.064Z,31.10
2023-02-22T16:16:20.904Z,22.30
2023-02-22T16:21:23.311Z,23.70
2023-02-22T16:26:29.431Z,38.77
2023-02-22T16:31:40.225Z,63.50
2023-02-22T16:36:45.830Z,62.60
2023-02-22T16:41:49.974Z,84.80
2023-02-22T16:46:53.467Z,45.13
2023-02-22T16:52:01.629Z,42.40
2023-02-22T16:57:05.157Z,32.90
2023-02-22T17:02:15.875Z,39.10
2023-02-22T17:07:24.151Z,34.73
2023-02-22T17:12:29.035Z,36.70
2023-02-22T17:17:32.745Z,42.97
2023-02-22T17:22:35.147Z,65.43
2023-02-22T17:27:37.606Z,43.73
2023-02-22T17:32:40.291Z,31.87
2023-02-22T17:37:43.025Z,36.87
2023-02-22T17:42:45.817Z,40.80
2023-02-22T17:47:48.284Z,43.73
2023-02-22T17:52:53.426Z,38.27
2023-02-22T17:58:00.904Z,35.70
2023-02-22T18:03:05.944Z,34.60
2023-02-22T18:08:08.639Z,35.03
2023-02-22T18:13:19.761Z,32.20
2023-02-22T18:18:23.149Z,35.00
2023-02-22T18:23:27.969Z,50.60
2023-02-22T18:28:31.276Z,50.50
2023-02-22T18:33:33.676Z,45.33
2023-02-22T18:38:36.125Z,44.93
2023-02-22T18:43:39.019Z,47.80
2023-02-22T18:48:41.569Z,61.20
2023-02-22T18:53:47.108Z,102.90
2023-02-22T18:58:54.343Z,49.97
2023-02-22T19:03:57.404Z,34.43
2023-02-22T19:09:01.593Z,36.87
2023-02-22T19:14:05.217Z,56.83
2023-02-22T19:19:07.624Z,40.50
2023-02-22T19:24:10.071Z,43.53
2023-02-22T19:29:12.438Z,37.50
2023-02-22T19:34:15.521Z,50.73
2023-02-22T19:39:19.896Z,41.93
2023-02-22T19:44:23.496Z,39.13
2023-02-22T19:49:27.916Z,38.10
2023-02-22T19:54:30.355Z,45.77
2023-02-22T19:59:32.772Z,41.00
2023-02-22T20:04:37.791Z,50.07
2023-02-22T20:09:40.391Z,45.23
2023-02-22T20:14:42.922Z,44.63
2023-02-22T20:19:45.310Z,37.87
2023-02-22T20:24:49.108Z,47.07
2023-02-22T20:29:51.651Z,39.50
2023-02-22T20:34:53.990Z,35.63
2023-02-22T20:39:56.386Z,36.57
2023-02-22T20:45:01.924Z,35.90
2023-02-22T20:50:05.676Z,39.53
2023-02-22T20:55:11.508Z,38.17
2023-02-22T21:00:14.523Z,39.27
2023-02-22T21:05:17.440Z,40.83
2023-02-22T21:10:21.133Z,38.20
2023-02-22T21:15:25.975Z,45.63
2023-02-22T21:20:28.658Z,52.80
2023-02-22T21:25:31.739Z,41.30
2023-02-22T21:30:34.174Z,36.77
2023-02-22T21:35:40.858Z,36.97
2023-02-22T21:40:46.526Z,41.93
2023-02-22T21:45:49.833Z,32.53
2023-02-22T21:50:52.332Z,34.60
2023-02-22T21:55:55.018Z,47.27
2023-02-22T22:01:05.924Z,40.03
2023-02-22T22:06:11.799Z,36.83
2023-02-22T22:11:18.048Z,43.20
2023-02-22T22:16:22.303Z,30.77
2023-02-22T22:21:25.005Z,33.53
2023-02-22T22:26:27.508Z,32.17
2023-02-22T22:31:30.837Z,35.40
2023-02-22T22:36:34.483Z,29.23
2023-02-22T22:41:36.925Z,30.57
2023-02-22T22:46:39.846Z,33.10
2023-02-22T22:51:42.738Z,34.77
2023-02-22T22:56:45.276Z,36.70
2023-02-22T23:01:47.674Z,27.10
2023-02-22T23:06:53.015Z,30.30
2023-02-22T23:12:08.534Z,27.63
2023-02-22T23:17:26.856Z,28.03
2023-02-22T23:22:29.489Z,26.73
2023-02-22T23:27:32.007Z,28.13
2023-02-22T23:32:35.209Z,31.07
2023-02-22T23:37:39.904Z,31.33
2023-02-22T23:42:46.183Z,29.40
2023-02-22T23:47:54.717Z,30.00
2023-02-22T23:53:02.660Z,31.13
2023-02-22T23:58:05.097Z,32.87
